createdAt,value
2023-04-04T00:00:57.176Z,11.13
2023-04-04T00:03:25.888Z,12.63
2023-04-04T00:05:54.253Z,9.55
2023-04-04T00:08:23.116Z,11.55
2023-04-04T00:10:51.348Z,11.02
2023-04-04T00:13:20.117Z,8.35
2023-04-04T00:15:48.519Z,12.15
2023-04-04T00:18:19.256Z,10.00
2023-04-04T00:20:47.607Z,11.07
2023-04-04T00:23:16.084Z,13.65
2023-04-04T00:25:45.383Z,9.85
2023-04-04T00:28:13.824Z,11.00
2023-04-04T00:30:42.202Z,9.80
2023-04-04T00:33:10.921Z,10.65
2023-04-04T00:35:40.803Z,11.02
2023-04-04T00:38:09.461Z,7.85
2023-04-04T00:40:42.565Z,9.50
2023-04-04T00:43:11.637Z,9.02
2023-04-04T00:45:40.202Z,8.98
2023-04-04T00:48:08.797Z,10.43
2023-04-04T00:50:37.225Z,8.43
2023-04-04T00:53:07.447Z,8.48
2023-04-04T00:55:38.660Z,9.73
2023-04-04T00:58:07.466Z,10.73
2023-04-04T01:00:36.440Z,12.40
2023-04-04T01:03:07.858Z,9.52
2023-04-04T01:08:06.178Z,8.38
2023-04-04T01:10:34.724Z,10.95
2023-04-04T01:13:03.249Z,13.95
2023-04-04T01:15:31.660Z,12.77
2023-04-04T01:18:03.957Z,11.68
2023-04-04T01:20:33.763Z,10.52
2023-04-04T01:23:02.488Z,9.25
2023-04-04T01:25:34.155Z,12.57
2023-04-04T01:28:02.743Z,11.13
2023-04-04T01:30:33.926Z,9.60
2023-04-04T01:33:05.356Z,7.85
2023-04-04T01:35:37.974Z,11.00
2023-04-04T01:38:17.011Z,9.40
2023-04-04T01:40:50.254Z,12.90
2023-04-04T01:43:18.974Z,9.82
2023-04-04T01:45:47.379Z,11.07
2023-04-04T01:48:16.783Z,11.55
2023-04-04T01:50:45.105Z,8.35
2023-04-04T01:53:13.703Z,10.75
2023-04-04T01:55:42.545Z,9.63
2023-04-04T01:58:12.440Z,9.40
2023-04-04T02:00:40.757Z,11.02
2023-04-04T02:03:09.628Z,12.88
2023-04-04T02:05:37.993Z,11.90
2023-04-04T02:08:07.739Z,10.60
2023-04-04T02:10:35.975Z,11.60
2023-04-04T02:13:04.498Z,9.05
2023-04-04T02:15:34.531Z,11.48
2023-04-04T02:18:03.708Z,12.37
2023-04-04T02:20:31.878Z,8.75
2023-04-04T02:23:00.361Z,13.13
2023-04-04T02:25:28.485Z,8.77
2023-04-04T02:27:57.032Z,12.13
2023-04-04T02:30:25.234Z,12.23
2023-04-04T02:32:55.200Z,11.30
2023-04-04T02:35:23.471Z,8.10
2023-04-04T02:37:52.056Z,10.30
2023-04-04T02:40:20.171Z,7.88
2023-04-04T02:42:48.660Z,9.63
2023-04-04T02:45:17.697Z,10.00
2023-04-04T02:47:51.172Z,9.82
2023-04-04T02:50:21.340Z,11.82
2023-04-04T02:52:49.887Z,10.88
2023-04-04T02:55:18.172Z,8.43
2023-04-04T02:57:52.374Z,10.98
2023-04-04T03:00:21.447Z,8.45
2023-04-04T03:02:55.151Z,9.75
2023-04-04T03:05:25.094Z,10.82
2023-04-04T03:07:56.341Z,9.57
2023-04-04T03:10:24.655Z,13.15
2023-04-04T03:12:53.250Z,9.05
2023-04-04T03:15:21.626Z,9.85
2023-04-04T03:17:50.232Z,11.15
2023-04-04T03:20:18.780Z,13.23
2023-04-04T03:22:48.693Z,7.30
2023-04-04T03:25:17.193Z,10.18
2023-04-04T03:27:45.830Z,11.07
2023-04-04T03:30:14.269Z,10.65
2023-04-04T03:32:42.857Z,8.93
2023-04-04T03:35:11.859Z,9.65
2023-04-04T03:37:40.578Z,11.70
2023-04-04T03:40:11.149Z,11.13
2023-04-04T03:42:39.664Z,10.27
2023-04-04T03:45:08.798Z,13.00
2023-04-04T03:47:37.461Z,11.10
2023-04-04T03:50:06.415Z,10.57
2023-04-04T03:52:38.981Z,11.18
2023-04-04T03:55:08.237Z,12.25
2023-04-04T03:57:38.094Z,12.88
2023-04-04T04:00:07.384Z,11.93
2023-04-04T04:02:36.029Z,12.93
2023-04-04T04:05:04.699Z,8.88
2023-04-04T04:07:33.173Z,14.07
2023-04-04T04:10:01.722Z,17.83
2023-04-04T04:12:30.246Z,12.63
2023-04-04T04:14:59.776Z,13.77
2023-04-04T04:17:28.346Z,9.93
2023-04-04T04:19:56.490Z,12.05
2023-04-04T04:22:25.060Z,9.60
2023-04-04T04:24:53.199Z,14.77
2023-04-04T04:27:21.575Z,11.48
2023-04-04T04:29:49.893Z,12.50
2023-04-04T04:32:20.302Z,10.65
2023-04-04T04:34:48.424Z,13.48
2023-04-04T04:37:17.524Z,11.88
2023-04-04T04:39:45.663Z,11.63
2023-04-04T04:42:14.097Z,12.55
2023-04-04T04:44:42.330Z,14.13
2023-04-04T04:47:11.380Z,13.68
2023-04-04T04:49:42.337Z,12.18
2023-04-04T04:54:39.222Z,11.30
2023-04-04T04:57:08.129Z,11.55
2023-04-04T04:59:37.234Z,10.48
2023-04-04T05:02:06.007Z,15.30
2023-04-04T05:04:34.311Z,11.93
2023-04-04T05:07:04.128Z,11.45
2023-04-04T05:09:32.522Z,10.80
2023-04-04T05:12:01.604Z,12.10
2023-04-04T05:14:29.870Z,17.27
2023-04-04T05:16:58.447Z,16.45
2023-04-04T05:19:26.835Z,14.85
2023-04-04T05:21:55.384Z,12.02
2023-04-04T05:24:24.871Z,15.98
2023-04-04T05:26:53.394Z,14.50
2023-04-04T05:29:21.873Z,12.25
2023-04-04T05:31:50.592Z,14.38
2023-04-04T05:34:18.732Z,15.90
2023-04-04T05:36:47.559Z,11.50
2023-04-04T05:39:15.750Z,13.45
2023-04-04T05:41:45.799Z,12.50
2023-04-04T05:44:14.067Z,11.85
2023-04-04T05:46:42.536Z,12.77
2023-04-04T05:49:10.705Z,11.85
2023-04-04T05:51:39.631Z,13.18
2023-04-04T05:54:08.314Z,12.35
2023-04-04T05:56:36.816Z,9.68
2023-04-04T05:59:06.695Z,12.25
2023-04-04T06:01:35.165Z,12.65
2023-04-04T06:04:03.488Z,11.20
2023-04-04T06:06:31.952Z,13.77
2023-04-04T06:09:00.175Z,12.73
2023-04-04T06:11:29.085Z,12.68
2023-04-04T06:13:57.348Z,17.10
2023-04-04T06:16:27.530Z,12.55
2023-04-04T06:18:55.965Z,10.52
2023-04-04T06:21:24.560Z,10.45
2023-04-04T06:23:52.844Z,7.10
2023-04-04T06:26:22.011Z,11.68
2023-04-04T06:28:50.944Z,8.52
2023-04-04T06:31:19.700Z,10.00
2023-04-04T06:33:49.493Z,10.95
2023-04-04T06:36:18.126Z,8.77
2023-04-04T06:38:46.426Z,6.30
2023-04-04T06:41:15.100Z,9.35
2023-04-04T06:43:43.762Z,7.70
2023-04-04T06:46:12.453Z,6.35
2023-04-04T06:48:40.776Z,9.98
2023-04-04T06:51:11.423Z,7.25
2023-04-04T06:53:39.929Z,13.13
2023-04-04T06:56:09.554Z,6.70
2023-04-04T06:58:39.228Z,6.60
2023-04-04T07:01:07.739Z,9.02
2023-04-04T07:03:36.064Z,8.32
2023-04-04T07:06:05.006Z,8.35
2023-04-04T07:08:36.662Z,11.57
2023-04-04T07:11:06.536Z,12.60
2023-04-04T07:13:35.615Z,7.60
2023-04-04T07:16:04.195Z,9.10
2023-04-04T07:18:32.484Z,10.93
2023-04-04T07:21:01.123Z,7.45
2023-04-04T07:23:29.282Z,7.57
2023-04-04T07:25:59.136Z,7.50
2023-04-04T07:28:27.300Z,9.00
2023-04-04T07:30:55.754Z,4.70
2023-04-04T07:33:24.092Z,5.93
2023-04-04T07:35:53.358Z,4.68
2023-04-04T07:38:22.006Z,7.90
2023-04-04T07:40:50.796Z,8.52
2023-04-04T07:43:20.619Z,6.57
2023-04-04T07:45:49.157Z,6.15
2023-04-04T07:48:19.643Z,6.63
2023-04-04T07:50:48.996Z,8.02
2023-04-04T07:53:17.173Z,5.13
2023-04-04T07:55:45.699Z,7.70
2023-04-04T07:58:13.924Z,7.65
2023-04-04T08:00:43.704Z,5.45
2023-04-04T08:03:12.544Z,6.82
2023-04-04T08:05:41.356Z,5.93
2023-04-04T08:08:09.518Z,5.68
2023-04-04T08:10:38.416Z,9.98
2023-04-04T08:13:07.074Z,6.63
2023-04-04T08:15:35.685Z,4.53
2023-04-04T08:18:05.552Z,5.18
2023-04-04T08:20:35.220Z,5.28
2023-04-04T08:23:04.383Z,6.65
2023-04-04T08:25:32.878Z,3.97
2023-04-04T08:28:01.292Z,6.38
2023-04-04T08:30:29.718Z,5.22
2023-04-04T08:32:57.950Z,6.85
2023-04-04T08:35:28.049Z,4.05
2023-04-04T08:37:57.440Z,3.83
2023-04-04T08:40:26.223Z,5.25
2023-04-04T08:42:54.676Z,3.88
2023-04-04T08:45:23.373Z,4.30
2023-04-04T08:47:53.991Z,5.93
2023-04-04T08:50:23.335Z,7.03
2023-04-04T08:52:53.677Z,3.97
2023-04-04T08:55:22.746Z,3.67
2023-04-04T08:57:50.967Z,6.97
2023-04-04T09:00:21.694Z,11.20
2023-04-04T09:02:57.989Z,7.32
2023-04-04T09:05:27.360Z,5.07
2023-04-04T09:07:57.713Z,7.40
2023-04-04T09:10:27.110Z,5.38
2023-04-04T09:13:05.092Z,4.38
2023-04-04T09:15:42.901Z,5.93
2023-04-04T09:18:11.122Z,3.67
2023-04-04T09:20:41.414Z,2.17
2023-04-04T09:23:12.888Z,3.87
2023-04-04T09:25:56.558Z,4.40
2023-04-04T09:28:31.330Z,19.27
2023-04-04T09:31:02.472Z,4.18
2023-04-04T09:33:34.434Z,5.57
2023-04-04T09:36:04.598Z,15.00
2023-04-04T09:38:38.025Z,9.80
2023-04-04T09:41:09.779Z,5.70
2023-04-04T09:46:07.976Z,4.65
2023-04-04T09:48:37.722Z,6.28
2023-04-04T09:51:07.484Z,4.72
2023-04-04T09:53:38.202Z,3.53
2023-04-04T09:56:07.833Z,4.93
2023-04-04T09:58:36.731Z,4.60
2023-04-04T10:01:10.048Z,3.97
2023-04-04T10:03:39.730Z,6.07
2023-04-04T10:06:10.047Z,6.18
2023-04-04T10:08:41.234Z,7.72
2023-04-04T10:11:12.312Z,6.95
2023-04-04T10:13:44.320Z,5.63
2023-04-04T10:16:20.859Z,8.35
2023-04-04T10:18:52.008Z,5.95
2023-04-04T10:23:50.733Z,7.15
2023-04-04T10:26:27.905Z,6.18
2023-04-04T10:29:00.660Z,10.02
2023-04-04T10:31:34.329Z,14.20
2023-04-04T10:34:12.938Z,5.13
2023-04-04T10:36:46.543Z,6.80
2023-04-04T10:39:22.804Z,7.78
2023-04-04T10:41:52.857Z,5.32
2023-04-04T10:44:28.760Z,8.88
2023-04-04T10:46:59.723Z,6.88
2023-04-04T10:49:29.909Z,4.47
2023-04-04T10:51:58.703Z,4.33
2023-04-04T10:54:29.263Z,4.82
2023-04-04T10:57:00.896Z,4.15
2023-04-04T11:01:59.235Z,5.18
2023-04-04T11:04:34.218Z,5.93
2023-04-04T11:07:10.913Z,7.25
2023-04-04T11:10:04.827Z,5.00
2023-04-04T11:12:36.398Z,4.28
2023-04-04T11:17:57.759Z,7.35
2023-04-04T11:20:30.795Z,6.05
2023-04-04T11:23:07.616Z,6.63
2023-04-04T11:25:42.155Z,4.35
2023-04-04T11:28:15.868Z,5.60
2023-04-04T11:30:50.339Z,4.03
2023-04-04T11:33:30.826Z,4.10
2023-04-04T11:36:08.397Z,4.20
2023-04-04T11:38:41.349Z,5.85
2023-04-04T11:41:11.884Z,9.55
2023-04-04T11:43:46.804Z,8.00
2023-04-04T11:46:18.642Z,6.82
2023-04-04T11:48:47.428Z,6.45
2023-04-04T11:51:15.954Z,4.00
2023-04-04T11:53:44.735Z,8.77
2023-04-04T11:56:18.134Z,5.03
2023-04-04T11:58:53.841Z,5.57
2023-04-04T12:01:27.222Z,5.00
2023-04-04T12:03:55.882Z,50.63
2023-04-04T12:06:24.274Z,11.38
2023-04-04T12:08:52.835Z,5.80
2023-04-04T12:11:23.621Z,5.50
2023-04-04T12:13:52.549Z,10.25
2023-04-04T12:16:20.968Z,4.82
2023-04-04T12:18:50.887Z,8.32
2023-04-04T12:21:19.196Z,10.98
2023-04-04T12:23:48.607Z,12.45
2023-04-04T12:26:17.118Z,5.88
2023-04-04T12:28:47.306Z,5.00
2023-04-04T12:31:16.288Z,7.57
2023-04-04T12:33:45.004Z,4.35
2023-04-04T12:36:13.208Z,15.68
2023-04-04T12:38:57.852Z,5.85
2023-04-04T12:41:26.035Z,8.63
2023-04-04T12:44:02.371Z,4.78
2023-04-04T12:46:36.809Z,4.78
2023-04-04T12:49:05.499Z,4.32
2023-04-04T12:51:34.503Z,6.28
2023-04-04T12:54:05.361Z,5.55
2023-04-04T12:56:33.723Z,5.38
2023-04-04T12:59:04.798Z,6.28
2023-04-04T13:01:33.505Z,6.85
2023-04-04T13:04:04.698Z,7.53
2023-04-04T13:06:33.918Z,7.47
2023-04-04T13:09:04.170Z,36.65
2023-04-04T13:11:59.990Z,51.28
2023-04-04T13:14:30.244Z,23.70
2023-04-04T13:17:08.360Z,11.85
2023-04-04T13:19:37.084Z,10.73
2023-04-04T13:22:08.894Z,6.80
2023-04-04T13:24:39.253Z,6.25
2023-04-04T13:27:08.286Z,8.20
2023-04-04T13:29:38.342Z,8.80
2023-04-04T13:32:06.817Z,6.25
2023-04-04T13:34:36.275Z,6.32
2023-04-04T13:37:04.762Z,4.70
2023-04-04T13:39:33.396Z,5.13
2023-04-04T13:42:02.190Z,6.10
2023-04-04T13:44:30.741Z,5.70
2023-04-04T13:47:01.431Z,5.40
2023-04-04T13:49:30.063Z,4.55
2023-04-04T13:51:58.337Z,3.58
2023-04-04T13:54:27.034Z,4.53
2023-04-04T13:56:56.619Z,5.93
2023-04-04T13:59:25.164Z,5.20
2023-04-04T14:01:53.736Z,4.32
2023-04-04T14:04:24.352Z,5.05
2023-04-04T14:06:52.908Z,6.93
2023-04-04T14:09:21.427Z,4.72
2023-04-04T14:11:49.743Z,4.22
2023-04-04T14:14:18.284Z,6.78
2023-04-04T14:16:46.522Z,6.65
2023-04-04T14:22:02.682Z,5.22
2023-04-04T14:24:31.252Z,8.35
2023-04-04T14:26:59.603Z,4.78
2023-04-04T14:29:28.378Z,5.80
2023-04-04T14:31:56.860Z,6.63
2023-04-04T14:34:28.134Z,7.65
2023-04-04T14:36:56.334Z,5.80
2023-04-04T14:39:31.307Z,5.95
2023-04-04T14:41:59.583Z,6.22
2023-04-04T14:44:28.402Z,7.40
2023-04-04T14:46:56.790Z,4.85
2023-04-04T14:49:28.550Z,4.97
2023-04-04T14:54:30.628Z,3.90
2023-04-04T14:56:59.068Z,6.38
2023-04-04T14:59:30.772Z,8.30
2023-04-04T15:01:59.117Z,5.85
2023-04-04T15:04:29.936Z,5.53
2023-04-04T15:07:03.359Z,9.32
2023-04-04T15:09:36.239Z,4.80
2023-04-04T15:12:04.646Z,5.70
2023-04-04T15:14:33.255Z,6.80
2023-04-04T15:17:01.691Z,5.70
2023-04-04T15:19:30.141Z,6.03
2023-04-04T15:21:58.344Z,7.20
2023-04-04T15:24:27.143Z,6.07
2023-04-04T15:26:57.778Z,8.23
2023-04-04T15:29:26.578Z,6.65
2023-04-04T15:31:54.964Z,5.95
2023-04-04T15:34:23.565Z,5.82
2023-04-04T15:36:52.276Z,5.97
2023-04-04T15:39:20.799Z,4.65
2023-04-04T15:41:49.048Z,6.57
2023-04-04T15:44:19.143Z,5.95
2023-04-04T15:46:47.535Z,5.53
2023-04-04T15:49:16.196Z,8.20
2023-04-04T15:51:46.044Z,7.15
2023-04-04T15:54:14.734Z,5.38
2023-04-04T15:56:43.102Z,6.72
2023-04-04T15:59:11.781Z,8.75
2023-04-04T16:01:42.005Z,4.47
2023-04-04T16:04:10.660Z,10.33
2023-04-04T16:06:39.207Z,7.55
2023-04-04T16:09:07.631Z,4.32
2023-04-04T16:11:35.808Z,7.07
2023-04-04T16:14:06.003Z,6.00
2023-04-04T16:16:34.440Z,5.97
2023-04-04T16:19:04.335Z,8.10
2023-04-04T16:21:32.692Z,9.35
2023-04-04T16:24:03.572Z,7.60
2023-04-04T16:26:31.840Z,8.57
2023-04-04T16:29:03.241Z,6.05
2023-04-04T16:31:31.564Z,9.15
2023-04-04T16:34:00.306Z,4.07
2023-04-04T16:36:30.144Z,9.27
2023-04-04T16:38:59.586Z,7.45
2023-04-04T16:41:27.848Z,11.88
2023-04-04T16:43:56.420Z,7.32
2023-04-04T16:46:24.673Z,8.65
2023-04-04T16:48:53.479Z,6.65
2023-04-04T16:51:21.768Z,5.25
2023-04-04T16:53:51.808Z,5.78
2023-04-04T16:56:20.034Z,9.35
2023-04-04T16:58:48.573Z,7.00
2023-04-04T17:01:20.839Z,10.73
2023-04-04T17:03:49.708Z,11.85
2023-04-04T17:06:18.234Z,8.55
2023-04-04T17:08:46.852Z,9.55
2023-04-04T17:11:16.988Z,10.98
2023-04-04T17:13:46.158Z,7.05
2023-04-04T17:16:14.622Z,11.02
2023-04-04T17:18:43.394Z,7.35
2023-04-04T17:21:11.634Z,10.07
2023-04-04T17:23:40.287Z,8.98
2023-04-04T17:26:08.474Z,11.77
2023-04-04T17:28:38.890Z,8.60
2023-04-04T17:31:07.763Z,11.20
2023-04-04T17:33:36.407Z,10.57
2023-04-04T17:36:05.165Z,8.23
2023-04-04T17:38:34.267Z,12.05
2023-04-04T17:41:04.293Z,8.43
2023-04-04T17:43:33.001Z,8.93
2023-04-04T17:46:02.819Z,12.35
2023-04-04T17:48:33.629Z,11.15
2023-04-04T17:51:02.231Z,18.17
2023-04-04T17:53:30.932Z,8.68
2023-04-04T17:55:59.889Z,10.48
2023-04-04T17:58:28.369Z,9.07
2023-04-04T18:00:57.670Z,7.95
2023-04-04T18:03:28.180Z,8.52
2023-04-04T18:05:57.133Z,6.20
2023-04-04T18:08:25.872Z,7.40
2023-04-04T18:10:54.055Z,9.48
2023-04-04T18:13:22.665Z,9.32
2023-04-04T18:15:51.752Z,11.90
2023-04-04T18:18:21.605Z,10.88
2023-04-04T18:20:51.335Z,11.63
2023-04-04T18:23:19.829Z,9.68
2023-04-04T18:25:48.092Z,10.32
2023-04-04T18:28:16.522Z,11.20
2023-04-04T18:30:44.827Z,9.05
2023-04-04T18:33:13.452Z,13.25
2023-04-04T18:35:41.744Z,11.40
2023-04-04T18:38:12.280Z,12.38
2023-04-04T18:40:40.616Z,7.88
2023-04-04T18:43:09.321Z,8.55
2023-04-04T18:45:40.712Z,14.02
2023-04-04T18:48:09.564Z,13.07
2023-04-04T18:50:37.908Z,12.38
2023-04-04T18:53:06.823Z,15.27
2023-04-04T18:55:36.468Z,14.75
2023-04-04T18:58:05.112Z,15.27
2023-04-04T19:00:35.745Z,17.23
2023-04-04T19:03:04.766Z,13.25
2023-04-04T19:05:34.177Z,12.52
2023-04-04T19:08:03.336Z,14.05
2023-04-04T19:10:31.675Z,13.57
2023-04-04T19:13:01.583Z,20.27
2023-04-04T19:15:30.485Z,17.60
2023-04-04T19:17:58.975Z,19.17
2023-04-04T19:20:27.386Z,18.52
2023-04-04T19:22:55.929Z,19.52
2023-04-04T19:25:24.042Z,22.13
2023-04-04T19:27:52.577Z,19.70
2023-04-04T19:30:41.810Z,20.05
2023-04-04T19:33:12.022Z,20.05
2023-04-04T19:35:51.827Z,16.92
2023-04-04T19:38:26.117Z,18.45
2023-04-04T19:40:57.905Z,18.45
2023-04-04T19:43:28.549Z,18.00
2023-04-04T19:46:00.607Z,19.67
2023-04-04T19:48:46.125Z,20.92
2023-04-04T19:51:38.986Z,26.23
2023-04-04T19:54:09.943Z,23.80
2023-04-04T19:56:38.046Z,21.98
2023-04-04T19:59:10.447Z,18.90
2023-04-04T20:01:44.873Z,21.02
2023-04-04T20:04:19.006Z,25.33
2023-04-04T20:06:49.073Z,22.45
2023-04-04T20:09:32.670Z,25.87
2023-04-04T20:12:00.882Z,29.65
2023-04-04T20:14:30.050Z,28.67
2023-04-04T20:16:59.679Z,31.77
2023-04-04T20:19:29.068Z,27.83
2023-04-04T20:21:57.335Z,33.53
2023-04-04T20:24:26.121Z,26.52
2023-04-04T20:26:59.264Z,26.40
2023-04-04T20:29:29.476Z,25.98
2023-04-04T20:32:02.861Z,27.45
2023-04-04T20:34:45.727Z,26.63
2023-04-04T20:37:16.393Z,23.33
2023-04-04T20:39:49.312Z,20.65
2023-04-04T20:42:44.718Z,25.40
2023-04-04T20:45:39.385Z,23.23
2023-04-04T20:48:09.500Z,21.50
2023-04-04T20:50:45.772Z,22.93
2023-04-04T20:53:20.657Z,22.20
2023-04-04T20:55:50.540Z,21.77
2023-04-04T20:58:28.011Z,21.02
2023-04-04T21:00:58.065Z,20.85
2023-04-04T21:03:36.829Z,21.77
2023-04-04T21:06:16.092Z,23.15
2023-04-04T21:08:46.063Z,21.83
2023-04-04T21:11:15.481Z,22.33
2023-04-04T21:13:45.680Z,20.55
2023-04-04T21:16:16.979Z,21.30
2023-04-04T21:18:47.326Z,29.85
2023-04-04T21:21:18.925Z,33.42
2023-04-04T21:23:52.742Z,32.03
2023-04-04T21:26:27.772Z,32.63
2023-04-04T21:28:56.550Z,31.08
2023-04-04T21:31:27.077Z,35.83
2023-04-04T21:33:58.373Z,38.25
2023-04-04T21:36:29.722Z,40.33
2023-04-04T21:38:59.099Z,52.40
2023-04-04T21:41:28.844Z,67.90
2023-04-04T21:43:58.092Z,51.35
2023-04-04T21:46:27.754Z,48.10
2023-04-04T21:48:57.636Z,44.72
2023-04-04T21:51:26.337Z,52.40
2023-04-04T21:53:54.922Z,65.70
2023-04-04T21:56:27.374Z,87.03
2023-04-04T21:58:56.072Z,92.95
2023-04-04T22:01:25.434Z,105.90
2023-04-04T22:03:53.663Z,98.13
2023-04-04T22:06:25.492Z,82.65
2023-04-04T22:08:53.709Z,89.03
2023-04-04T22:11:23.152Z,86.88
2023-04-04T22:13:51.889Z,85.18
2023-04-04T22:16:21.253Z,91.30
2023-04-04T22:18:52.312Z,91.70
2023-04-04T22:21:26.057Z,82.32
2023-04-04T22:24:01.132Z,97.18
2023-04-04T22:26:35.798Z,91.03
2023-04-04T22:29:05.549Z,79.30
2023-04-04T22:31:35.403Z,77.20
2023-04-04T22:34:04.071Z,77.15
2023-04-04T22:36:34.680Z,75.00
2023-04-04T22:39:04.950Z,73.90
2023-04-04T22:41:33.452Z,81.20
2023-04-04T22:44:01.613Z,74.55
2023-04-04T22:46:30.123Z,74.70
2023-04-04T22:49:05.731Z,81.57
2023-04-04T22:51:43.510Z,88.53
2023-04-04T22:54:14.677Z,103.93
2023-04-04T22:59:11.816Z,105.85
2023-04-04T23:01:40.665Z,90.25
2023-04-04T23:04:08.971Z,79.47
2023-04-04T23:06:38.598Z,76.40
2023-04-04T23:09:08.248Z,74.97
2023-04-04T23:11:38.251Z,71.05
2023-04-04T23:14:09.426Z,67.57
2023-04-04T23:16:41.106Z,71.43
2023-04-04T23:19:09.847Z,80.88
2023-04-04T23:21:38.383Z,74.25
2023-04-04T23:24:07.504Z,76.97
2023-04-04T23:26:37.283Z,64.78
2023-04-04T23:29:05.910Z,70.22
2023-04-04T23:31:37.579Z,66.88
2023-04-04T23:36:34.258Z,64.93
2023-04-04T23:39:03.432Z,68.60
2023-04-04T23:41:32.330Z,68.90
2023-04-04T23:44:02.246Z,69.00
2023-04-04T23:46:32.775Z,67.80
2023-04-04T23:49:01.368Z,73.95
2023-04-04T23:51:37.926Z,74.53
2023-04-04T23:54:06.629Z,79.28
2023-04-04T23:56:35.242Z,83.78
2023-04-04T23:59:05.807Z,88.25
